Airport View

Enter AWOS ICAO identifier for current METAR.

ex. KFNL

KMMV 101553Z AUTO 10004KT 10SM CLR 20/10 A3009 RMK AO2 SLP187 T02000100

10 Aug 2020 16:30

Frequency: 135.675

Phone: 503-434-9153

Other Area AWOS: KUAO - KSLE - KHIO - KTMK

TAF KSLE 101120Z 1012/1112 34005KT P6SM SKC FM101700 36010KT P6SM SKC FM102200 02011G20KT P6SM SKC FM110300 01010KT P6SM SKC FM110700 34005KT P6SM SKC